Back to Top

Language: 

My Weather Underground Personal Weather Station Historical Data with Graphs...

Delerius Weather Station Historical Data
Daily Summary for November 23, 2017 Units:  English    Metric   Both
« Previous Day
Next Day »
Daily Weekly Monthly Yearly Custom
  High: Low: Average:
Temperature: 55.9 °F 38.8 °F 45.1 °F
Dew Point: 51.8 °F 35.2 °F 40.3 °F
Humidity: 90 % 73 % 83 %
Wind Speed: 24.0 mph 0.0 mph 10.7 mph
Wind Gust: 36.0 mph - -
Wind:- - WSW
Pressure: 29.65 in 28.89 in -
Precipitation: 0.02 in    
Historical Graphs
 
 
Tabular Data for November 23, 2017
Time Temperature Dew Point Pressure Wind Wind Speed Wind Gust Humidity Rainfall Rate (Hourly) solar Conditions
00:05 55.9 °F 51.2 °F 28.89 in SW 24.0 mph 36.0 mph 84 % 0.01 in 0 W/m2
00:10 55.9 °F 51.5 °F 28.90 in SW 20.0 mph 29.0 mph 85 % 0.01 in 0 W/m2
00:15 55.6 °F 51.8 °F 28.90 in SW 16.0 mph 25.0 mph 87 % 0.01 in 0 W/m2
00:25 55.2 °F 51.4 °F 28.92 in WSW 15.0 mph 22.0 mph 87 % 0.01 in 0 W/m2
00:30 55.0 °F 50.9 °F 28.92 in WSW 13.0 mph 19.0 mph 86 % 0.01 in 0 W/m2
00:40 54.5 °F 49.8 °F 28.93 in WSW 19.0 mph 30.0 mph 84 % 0.00 in 0 W/m2
00:55 53.8 °F 47.8 °F 28.94 in WSW 12.0 mph 21.0 mph 80 % 0.00 in 0 W/m2
01:10 53.2 °F 47.6 °F 28.94 in WSW 6.0 mph 11.0 mph 81 % 0.00 in 0 W/m2
01:20 52.7 °F 47.4 °F 28.95 in WSW 8.0 mph 12.0 mph 82 % 0.00 in 0 W/m2
01:25 52.5 °F 47.2 °F 28.95 in West 9.0 mph 13.0 mph 82 % 0.00 in 0 W/m2
01:30 52.3 °F 47.0 °F 28.95 in West 11.0 mph 18.0 mph 82 % 0.00 in 0 W/m2
01:35 52.3 °F 47.0 °F 28.95 in WSW 9.0 mph 15.0 mph 82 % 0.00 in 0 W/m2
01:40 52.2 °F 47.2 °F 28.95 in WSW 8.0 mph 14.0 mph 83 % 0.00 in 0 W/m2
01:45 52.2 °F 47.2 °F 28.95 in WSW 8.0 mph 12.0 mph 83 % 0.00 in 0 W/m2
01:50 52.2 °F 47.2 °F 28.96 in WSW 7.0 mph 10.0 mph 83 % 0.00 in 0 W/m2
01:55 52.2 °F 47.2 °F 28.96 in WSW 7.0 mph 10.0 mph 83 % 0.00 in 0 W/m2
01:56 52.2 °F 47.2 °F 28.96 in WSW 7.0 mph 10.0 mph 83 % 0.00 in 0 W/m2
02:06 52.2 °F 47.2 °F 28.96 in WSW 7.0 mph 11.0 mph 83 % 0.00 in 0 W/m2
02:11 52.2 °F 47.2 °F 28.96 in SW 8.0 mph 11.0 mph 83 % 0.00 in 0 W/m2
02:21 52.2 °F 47.2 °F 28.96 in SW 6.0 mph 8.0 mph 83 % 0.00 in 0 W/m2
02:26 52.0 °F 47.0 °F 28.96 in SW 5.0 mph 7.0 mph 83 % 0.00 in 0 W/m2
02:31 51.8 °F 46.8 °F 28.96 in SW 6.0 mph 10.0 mph 83 % 0.00 in 0 W/m2
02:36 52.0 °F 47.3 °F 28.96 in SW 7.0 mph 9.0 mph 84 % 0.00 in 0 W/m2
02:41 52.0 °F 47.3 °F 28.96 in SW 6.0 mph 10.0 mph 84 % 0.00 in 0 W/m2
02:46 52.0 °F 47.3 °F 28.97 in SW 6.0 mph 9.0 mph 84 % 0.00 in 0 W/m2
03:01 52.0 °F 47.9 °F 28.96 in SSW 9.0 mph 16.0 mph 86 % 0.00 in 0 W/m2
03:11 51.8 °F 47.7 °F 28.96 in SSW 8.0 mph 12.0 mph 86 % 0.00 in 0 W/m2
03:16 51.8 °F 47.7 °F 28.96 in SW 8.0 mph 14.0 mph 86 % 0.00 in 0 W/m2
03:18 51.8 °F 47.7 °F 28.96 in SW 7.0 mph 11.0 mph 86 % 0.00 in 0 W/m2
03:21 51.6 °F 47.6 °F 28.96 in SW 9.0 mph 14.0 mph 86 % 0.00 in 0 W/m2
03:24 51.6 °F 47.6 °F 28.96 in SW 9.0 mph 14.0 mph 86 % 0.00 in 0 W/m2
03:26 51.6 °F 47.6 °F 28.96 in SW 9.0 mph 14.0 mph 86 % 0.00 in 0 W/m2
03:32 51.6 °F 47.9 °F 28.97 in WSW 5.0 mph 9.0 mph 87 % 0.00 in 0 W/m2
03:37 51.6 °F 47.9 °F 28.97 in WSW 8.0 mph 12.0 mph 87 % 0.00 in 0 W/m2
03:42 51.4 °F 47.7 °F 28.97 in WSW 8.0 mph 15.0 mph 87 % 0.00 in 0 W/m2
03:47 51.1 °F 47.0 °F 28.98 in West 14.0 mph 20.0 mph 86 % 0.00 in 0 W/m2
03:57 49.6 °F 45.6 °F 28.99 in West 13.0 mph 18.0 mph 86 % 0.00 in 0 W/m2
04:02 49.3 °F 45.3 °F 28.99 in West 12.0 mph 19.0 mph 86 % 0.00 in 0 W/m2
04:07 48.9 °F 45.2 °F 28.99 in WNW 13.0 mph 18.0 mph 87 % 0.00 in 0 W/m2
04:12 48.7 °F 45.0 °F 29.00 in WNW 7.0 mph 11.0 mph 87 % 0.00 in 0 W/m2
04:17 48.4 °F 44.7 °F 29.00 in West 13.0 mph 21.0 mph 87 % 0.00 in 0 W/m2
04:22 48.0 °F 44.3 °F 29.01 in WNW 12.0 mph 16.0 mph 87 % 0.00 in 0 W/m2
04:37 46.8 °F 42.8 °F 29.02 in WNW 14.0 mph 20.0 mph 86 % 0.00 in 0 W/m2
04:42 46.2 °F 42.6 °F 29.03 in WNW 12.0 mph 21.0 mph 87 % 0.00 in 0 W/m2
04:47 46.0 °F 42.1 °F 29.03 in WNW 12.0 mph 19.0 mph 86 % 0.00 in 0 W/m2
04:52 45.9 °F 42.2 °F 29.04 in West 8.0 mph 12.0 mph 87 % 0.00 in 0 W/m2
04:57 45.7 °F 42.0 °F 29.05 in West 12.0 mph 20.0 mph 87 % 0.00 in 0 W/m2
05:02 45.1 °F 41.5 °F 29.05 in West 13.0 mph 19.0 mph 87 % 0.00 in 0 W/m2
05:12 44.6 °F 41.3 °F 29.06 in West 13.0 mph 22.0 mph 88 % 0.00 in 0 W/m2
05:17 44.4 °F 41.1 °F 29.07 in West 10.0 mph 19.0 mph 88 % 0.00 in 0 W/m2
05:27 44.1 °F 41.0 °F 29.08 in West 13.0 mph 23.0 mph 89 % 0.00 in 0 W/m2
05:32 43.5 °F 40.2 °F 29.08 in West 15.0 mph 23.0 mph 88 % 0.00 in 0 W/m2
05:37 43.0 °F 39.4 °F 29.08 in West 13.0 mph 21.0 mph 87 % 0.00 in 0 W/m2
05:42 42.8 °F 39.2 °F 29.08 in WNW 13.0 mph 20.0 mph 87 % 0.00 in 0 W/m2
05:52 42.6 °F 38.7 °F 29.09 in West 10.0 mph 16.0 mph 86 % 0.00 in 0 W/m2
05:59 42.4 °F 38.5 °F 29.09 in West 9.0 mph 15.0 mph 86 % 0.00 in 0 W/m2
06:09 42.3 °F 38.4 °F 29.10 in West 8.0 mph 13.0 mph 86 % 0.00 in 0 W/m2
06:14 42.3 °F 38.4 °F 29.10 in West 10.0 mph 15.0 mph 86 % 0.00 in 0 W/m2
06:19 42.3 °F 38.4 °F 29.10 in WSW 10.0 mph 16.0 mph 86 % 0.00 in 0 W/m2
06:24 42.3 °F 38.1 °F 29.11 in West 12.0 mph 19.0 mph 85 % 0.00 in 0 W/m2
06:29 42.3 °F 38.1 °F 29.11 in West 10.0 mph 15.0 mph 85 % 0.00 in 0 W/m2
06:34 42.1 °F 37.6 °F 29.11 in WSW 11.0 mph 18.0 mph 84 % 0.00 in 0 W/m2
06:39 42.1 °F 37.6 °F 29.12 in WSW 13.0 mph 21.0 mph 84 % 0.00 in 0 W/m2
06:44 41.9 °F 37.1 °F 29.13 in WSW 13.0 mph 19.0 mph 83 % 0.00 in 0 W/m2
07:09 42.3 °F 37.5 °F 29.15 in WSW 7.0 mph 10.0 mph 83 % 0.00 in 0 W/m2
07:34 41.5 °F 36.5 °F 29.17 in WSW 8.0 mph 13.0 mph 82 % 0.00 in 0 W/m2
07:39 41.5 °F 36.8 °F 29.17 in WSW 10.0 mph 15.0 mph 83 % 0.00 in 0 W/m2
07:49 41.5 °F 36.5 °F 29.18 in WSW 11.0 mph 15.0 mph 82 % 0.00 in 7 W/m2
07:54 41.5 °F 36.5 °F 29.18 in WSW 10.0 mph 16.0 mph 82 % 0.00 in 9 W/m2
07:59 41.5 °F 36.5 °F 29.19 in WSW 10.0 mph 16.0 mph 82 % 0.00 in 12 W/m2
08:09 41.7 °F 36.3 °F 29.19 in WSW 7.0 mph 12.0 mph 81 % 0.00 in 16 W/m2
08:14 41.9 °F 36.5 °F 29.20 in WSW 8.0 mph 13.0 mph 81 % 0.00 in 18 W/m2
08:29 42.3 °F 36.8 °F 29.21 in SW 10.0 mph 16.0 mph 81 % 0.00 in 25 W/m2
08:39 42.6 °F 36.9 °F 29.21 in WSW 8.0 mph 13.0 mph 80 % 0.00 in 28 W/m2
08:44 42.8 °F 36.7 °F 29.21 in WSW 10.0 mph 15.0 mph 79 % 0.00 in 32 W/m2
08:49 43.2 °F 36.8 °F 29.22 in WSW 14.0 mph 20.0 mph 78 % 0.00 in 35 W/m2
08:59 43.7 °F 37.0 °F 29.22 in SW 12.0 mph 19.0 mph 77 % 0.00 in 40 W/m2
09:19 44.4 °F 37.3 °F 29.23 in SW 9.0 mph 13.0 mph 76 % 0.00 in 148 W/m2
09:24 44.8 °F 37.3 °F 29.23 in SSW 10.0 mph 16.0 mph 75 % 0.00 in 156 W/m2
09:29 45.1 °F 37.7 °F 29.23 in SW 9.0 mph 14.0 mph 75 % 0.00 in 162 W/m2
09:34 45.1 °F 37.7 °F 29.23 in SSW 9.0 mph 15.0 mph 75 % 0.00 in 172 W/m2
09:40 45.1 °F 37.7 °F 29.23 in SSW 10.0 mph 19.0 mph 75 % 0.00 in 176 W/m2
09:45 45.1 °F 38.0 °F 29.24 in SSW 7.0 mph 11.0 mph 76 % 0.00 in 183 W/m2
09:50 45.1 °F 38.0 °F 29.24 in SSW 9.0 mph 14.0 mph 76 % 0.00 in 186 W/m2
09:55 45.3 °F 38.5 °F 29.24 in SSW 8.0 mph 15.0 mph 77 % 0.00 in 200 W/m2
10:00 45.3 °F 38.5 °F 29.24 in SSW 10.0 mph 16.0 mph 77 % 0.00 in 229 W/m2
10:05 45.3 °F 38.5 °F 29.24 in SSW 9.0 mph 18.0 mph 77 % 0.00 in 142 W/m2
10:10 45.5 °F 38.7 °F 29.24 in SSW 16.0 mph 24.0 mph 77 % 0.00 in 229 W/m2
10:15 45.5 °F 38.7 °F 29.25 in SSW 10.0 mph 21.0 mph 77 % 0.00 in 135 W/m2
10:25 45.3 °F 38.5 °F 29.25 in SSW 13.0 mph 18.0 mph 77 % 0.00 in 237 W/m2
10:30 45.7 °F 39.2 °F 29.25 in SSW 13.0 mph 21.0 mph 78 % 0.00 in 237 W/m2
10:35 45.9 °F 39.1 °F 29.24 in SSW 15.0 mph 25.0 mph 77 % 0.00 in 243 W/m2
10:45 46.2 °F 39.1 °F 29.25 in SSW 12.0 mph 21.0 mph 76 % 0.00 in 255 W/m2
10:50 46.6 °F 39.1 °F 29.24 in SW 16.0 mph 22.0 mph 75 % 0.00 in 264 W/m2
11:00 47.1 °F 39.3 °F 29.24 in SW 10.0 mph 18.0 mph 74 % 0.00 in 283 W/m2
11:05 47.3 °F 39.4 °F 29.24 in SW 16.0 mph 25.0 mph 74 % 0.00 in 274 W/m2
11:15 47.5 °F 39.6 °F 29.24 in SW 15.0 mph 28.0 mph 74 % 0.00 in 332 W/m2
11:25 47.7 °F 39.4 °F 29.24 in SW 16.0 mph 30.0 mph 73 % 0.00 in 283 W/m2
11:35 47.8 °F 40.0 °F 29.23 in SW 14.0 mph 24.0 mph 74 % 0.00 in 292 W/m2
11:40 48.0 °F 39.8 °F 29.24 in SW 18.0 mph 28.0 mph 73 % 0.00 in 301 W/m2
11:45 47.8 °F 39.6 °F 29.23 in SW 24.0 mph 33.0 mph 73 % 0.00 in 295 W/m2
11:50 47.8 °F 39.6 °F 29.23 in SW 19.0 mph 26.0 mph 73 % 0.00 in 302 W/m2
11:55 48.0 °F 39.8 °F 29.23 in SW 21.0 mph 32.0 mph 73 % 0.00 in 295 W/m2
12:00 47.8 °F 39.6 °F 29.24 in SW 23.0 mph 34.0 mph 73 % 0.00 in 113 W/m2
12:05 47.3 °F 39.8 °F 29.24 in SW 17.0 mph 27.0 mph 75 % 0.00 in 132 W/m2
12:10 46.9 °F 40.1 °F 29.24 in WSW 21.0 mph 29.0 mph 77 % 0.00 in 137 W/m2
12:15 46.9 °F 40.1 °F 29.24 in WSW 17.0 mph 27.0 mph 77 % 0.00 in 98 W/m2
12:25 47.5 °F 40.3 °F 29.25 in WSW 18.0 mph 26.0 mph 76 % 0.00 in 118 W/m2
12:30 47.5 °F 40.3 °F 29.26 in WSW 19.0 mph 29.0 mph 76 % 0.00 in 81 W/m2
12:35 47.3 °F 40.5 °F 29.26 in SW 20.0 mph 33.0 mph 77 % 0.00 in 95 W/m2
12:40 47.5 °F 40.6 °F 29.27 in SW 19.0 mph 33.0 mph 77 % 0.00 in 113 W/m2
12:45 47.5 °F 40.6 °F 29.26 in WSW 22.0 mph 34.0 mph 77 % 0.00 in 113 W/m2
12:56 47.8 °F 40.6 °F 29.27 in WSW 20.0 mph 32.0 mph 76 % 0.00 in 278 W/m2
13:01 48.2 °F 41.0 °F 29.27 in WSW 18.0 mph 24.0 mph 76 % 0.00 in 90 W/m2
13:06 48.2 °F 41.0 °F 29.27 in WSW 18.0 mph 31.0 mph 76 % 0.00 in 197 W/m2
13:11 48.4 °F 41.2 °F 29.27 in WSW 20.0 mph 34.0 mph 76 % 0.00 in 265 W/m2
13:21 48.7 °F 41.5 °F 29.30 in WSW 21.0 mph 29.0 mph 76 % 0.00 in 104 W/m2
13:26 48.0 °F 41.8 °F 29.31 in West 20.0 mph 36.0 mph 79 % 0.00 in 63 W/m2
13:32 46.9 °F 41.7 °F 29.31 in WSW 21.0 mph 33.0 mph 82 % 0.00 in 86 W/m2
13:37 45.9 °F 41.3 °F 29.32 in West 19.0 mph 29.0 mph 84 % 0.00 in 83 W/m2
13:57 45.9 °F 41.3 °F 29.33 in West 14.0 mph 24.0 mph 84 % 0.01 in 186 W/m2
14:02 46.0 °F 40.9 °F 29.34 in West 17.0 mph 30.0 mph 82 % 0.01 in 185 W/m2
14:07 46.0 °F 40.5 °F 29.34 in West 17.0 mph 29.0 mph 81 % 0.01 in 40 W/m2
14:12 45.9 °F 40.0 °F 29.35 in West 19.0 mph 32.0 mph 80 % 0.01 in 44 W/m2
14:17 45.7 °F 39.2 °F 29.35 in WSW 16.0 mph 31.0 mph 78 % 0.01 in 26 W/m2
14:27 45.7 °F 38.9 °F 29.36 in West 17.0 mph 29.0 mph 77 % 0.01 in 26 W/m2
14:32 45.7 °F 38.9 °F 29.37 in West 17.0 mph 26.0 mph 77 % 0.01 in 25 W/m2
14:37 45.3 °F 38.9 °F 29.38 in West 19.0 mph 33.0 mph 78 % 0.01 in 39 W/m2
14:42 45.1 °F 38.7 °F 29.39 in West 13.0 mph 23.0 mph 78 % 0.00 in 23 W/m2
14:57 45.0 °F 38.8 °F 29.40 in WSW 17.0 mph 27.0 mph 79 % 0.00 in 19 W/m2
15:07 45.0 °F 38.8 °F 29.41 in West 16.0 mph 28.0 mph 79 % 0.00 in 16 W/m2
15:12 45.0 °F 38.5 °F 29.42 in West 19.0 mph 32.0 mph 78 % 0.00 in 35 W/m2
15:22 44.4 °F 39.0 °F 29.43 in WNW 14.0 mph 23.0 mph 81 % 0.00 in 14 W/m2
15:27 44.1 °F 38.9 °F 29.43 in West 12.0 mph 18.0 mph 82 % 0.00 in 11 W/m2
15:32 43.9 °F 39.1 °F 29.43 in WNW 12.0 mph 22.0 mph 83 % 0.00 in 11 W/m2
15:37 43.5 °F 38.7 °F 29.44 in WNW 10.0 mph 16.0 mph 83 % 0.00 in 9 W/m2
15:57 43.3 °F 39.4 °F 29.46 in West 16.0 mph 23.0 mph 86 % 0.00 in 0 W/m2
16:07 43.0 °F 39.1 °F 29.46 in West 12.0 mph 23.0 mph 86 % 0.00 in 0 W/m2
16:12 43.0 °F 39.1 °F 29.46 in West 11.0 mph 16.0 mph 86 % 0.00 in 0 W/m2
16:17 43.0 °F 39.1 °F 29.47 in West 10.0 mph 14.0 mph 86 % 0.00 in 0 W/m2
16:22 43.0 °F 39.1 °F 29.48 in WSW 9.0 mph 14.0 mph 86 % 0.00 in 0 W/m2
16:25 43.0 °F 39.1 °F 29.48 in WSW 11.0 mph 14.0 mph 86 % 0.00 in 0 W/m2
16:30 43.0 °F 39.1 °F 29.48 in WSW 10.0 mph 16.0 mph 86 % 0.00 in 0 W/m2
16:40 43.0 °F 39.1 °F 29.49 in West 8.0 mph 14.0 mph 86 % 0.00 in 0 W/m2
16:45 43.0 °F 39.1 °F 29.49 in West 10.0 mph 15.0 mph 86 % 0.00 in 0 W/m2
16:50 43.2 °F 39.0 °F 29.50 in WSW 12.0 mph 18.0 mph 85 % 0.00 in 0 W/m2
16:55 43.2 °F 39.0 °F 29.50 in WSW 10.0 mph 14.0 mph 85 % 0.00 in 0 W/m2
17:05 43.2 °F 39.0 °F 29.51 in WSW 9.0 mph 12.0 mph 85 % 0.00 in 0 W/m2
17:15 43.0 °F 38.8 °F 29.52 in West 7.0 mph 11.0 mph 85 % 0.00 in 0 W/m2
17:30 42.6 °F 38.7 °F 29.52 in WSW 7.0 mph 11.0 mph 86 % 0.00 in 0 W/m2
17:35 42.8 °F 38.9 °F 29.52 in WSW 9.0 mph 13.0 mph 86 % 0.00 in 0 W/m2
17:40 43.0 °F 38.8 °F 29.52 in WSW 10.0 mph 15.0 mph 85 % 0.00 in 0 W/m2
17:50 43.0 °F 38.8 °F 29.53 in West 8.0 mph 12.0 mph 85 % 0.00 in 0 W/m2
17:55 42.8 °F 38.6 °F 29.54 in WSW 7.0 mph 10.0 mph 85 % 0.00 in 0 W/m2
18:00 42.8 °F 38.6 °F 29.54 in WSW 10.0 mph 14.0 mph 85 % 0.00 in 0 W/m2
18:05 42.8 °F 38.6 °F 29.54 in West 10.0 mph 16.0 mph 85 % 0.00 in 0 W/m2
18:15 42.6 °F 38.7 °F 29.55 in West 8.0 mph 13.0 mph 86 % 0.00 in 0 W/m2
18:20 42.6 °F 38.7 °F 29.56 in West 9.0 mph 13.0 mph 86 % 0.00 in 0 W/m2
18:30 42.6 °F 39.0 °F 29.56 in WNW 10.0 mph 15.0 mph 87 % 0.00 in 0 W/m2
18:35 42.6 °F 39.3 °F 29.56 in West 9.0 mph 13.0 mph 88 % 0.01 in 0 W/m2
18:45 42.3 °F 39.2 °F 29.56 in West 8.0 mph 11.0 mph 89 % 0.01 in 0 W/m2
18:50 42.1 °F 39.1 °F 29.57 in West 7.0 mph 11.0 mph 89 % 0.01 in 0 W/m2
18:55 41.9 °F 39.2 °F 29.57 in West 11.0 mph 15.0 mph 90 % 0.01 in 0 W/m2
19:00 42.1 °F 39.4 °F 29.57 in West 9.0 mph 16.0 mph 90 % 0.01 in 0 W/m2
19:05 42.1 °F 39.1 °F 29.57 in West 9.0 mph 12.0 mph 89 % 0.01 in 0 W/m2
19:10 41.9 °F 38.9 °F 29.58 in West 8.0 mph 13.0 mph 89 % 0.01 in 0 W/m2
19:15 41.7 °F 38.7 °F 29.58 in West 9.0 mph 13.0 mph 89 % 0.01 in 0 W/m2
19:20 41.7 °F 38.7 °F 29.58 in West 9.0 mph 13.0 mph 89 % 0.01 in 0 W/m2
19:30 41.7 °F 38.7 °F 29.58 in West 9.0 mph 15.0 mph 89 % 0.01 in 0 W/m2
19:35 41.5 °F 38.5 °F 29.58 in West 9.0 mph 15.0 mph 89 % 0.00 in 0 W/m2
19:45 41.7 °F 38.4 °F 29.59 in West 11.0 mph 16.0 mph 88 % 0.00 in 0 W/m2
20:01 41.7 °F 38.1 °F 29.59 in West 11.0 mph 15.0 mph 87 % 0.00 in 0 W/m2
20:06 41.5 °F 38.0 °F 29.59 in West 9.0 mph 15.0 mph 87 % 0.00 in 0 W/m2
20:16 41.4 °F 37.5 °F 29.59 in West 9.0 mph 12.0 mph 86 % 0.00 in 0 W/m2
20:21 41.4 °F 37.5 °F 29.59 in WSW 14.0 mph 25.0 mph 86 % 0.00 in 0 W/m2
20:26 41.5 °F 37.4 °F 29.59 in West 12.0 mph 18.0 mph 85 % 0.00 in 0 W/m2
20:31 41.5 °F 37.4 °F 29.60 in West 9.0 mph 14.0 mph 85 % 0.00 in 0 W/m2
20:36 41.4 °F 37.2 °F 29.60 in West 9.0 mph 14.0 mph 85 % 0.00 in 0 W/m2
20:41 41.4 °F 37.2 °F 29.60 in West 9.0 mph 16.0 mph 85 % 0.00 in 0 W/m2
20:51 41.4 °F 37.2 °F 29.60 in West 8.0 mph 12.0 mph 85 % 0.00 in 0 W/m2
20:56 41.4 °F 37.2 °F 29.60 in West 8.0 mph 16.0 mph 85 % 0.00 in 0 W/m2
21:01 41.2 °F 37.0 °F 29.61 in West 7.0 mph 11.0 mph 85 % 0.00 in 0 W/m2
21:11 40.8 °F 37.0 °F 29.61 in West 6.0 mph 8.0 mph 86 % 0.00 in 0 W/m2
21:16 40.8 °F 37.0 °F 29.62 in West 3.0 mph 6.0 mph 86 % 0.00 in 0 W/m2
21:21 40.6 °F 36.8 °F 29.62 in West 1.0 mph 4.0 mph 86 % 0.00 in 0 W/m2
21:26 40.3 °F 36.7 °F 29.62 in West 2.0 mph 5.0 mph 87 % 0.00 in 0 W/m2
21:31 40.3 °F 36.7 °F 29.62 in West 1.0 mph 5.0 mph 87 % 0.00 in 0 W/m2
21:36 40.1 °F 36.8 °F 29.63 in WSW 5.0 mph 10.0 mph 88 % 0.00 in 0 W/m2
21:41 40.3 °F 37.0 °F 29.63 in SW 4.0 mph 8.0 mph 88 % 0.00 in 0 W/m2
21:46 40.3 °F 37.0 °F 29.64 in West 3.0 mph 8.0 mph 88 % 0.00 in 0 W/m2
21:51 40.3 °F 37.0 °F 29.63 in WSW 5.0 mph 7.0 mph 88 % 0.00 in 0 W/m2
22:01 40.1 °F 36.8 °F 29.64 in West 7.0 mph 12.0 mph 88 % 0.00 in 0 W/m2
22:06 40.1 °F 36.8 °F 29.64 in West 8.0 mph 13.0 mph 88 % 0.00 in 0 W/m2
22:16 40.3 °F 37.0 °F 29.63 in West 6.0 mph 9.0 mph 88 % 0.00 in 0 W/m2
22:26 39.9 °F 36.7 °F 29.63 in West 7.0 mph 11.0 mph 88 % 0.00 in 0 W/m2
22:31 39.9 °F 36.7 °F 29.63 in West 5.0 mph 9.0 mph 88 % 0.00 in 0 W/m2
22:36 39.7 °F 36.5 °F 29.63 in West 6.0 mph 11.0 mph 88 % 0.00 in 0 W/m2
22:41 39.6 °F 36.3 °F 29.63 in West 2.0 mph 7.0 mph 88 % 0.00 in 0 W/m2
22:42 39.6 °F 36.3 °F 29.63 in West 3.0 mph 7.0 mph 88 % 0.00 in 0 W/m2
22:47 39.4 °F 36.1 °F 29.63 in WNW 1.0 mph 5.0 mph 88 % 0.00 in 0 W/m2
22:52 39.2 °F 35.9 °F 29.64 in West 5.0 mph 12.0 mph 88 % 0.00 in 0 W/m2
22:57 39.2 °F 35.9 °F 29.64 in WSW 6.0 mph 10.0 mph 88 % 0.00 in 0 W/m2
23:02 39.4 °F 36.1 °F 29.64 in West 5.0 mph 9.0 mph 88 % 0.00 in 0 W/m2
23:07 39.4 °F 36.1 °F 29.64 in West 6.0 mph 11.0 mph 88 % 0.00 in 0 W/m2
23:22 39.6 °F 35.7 °F 29.64 in West 1.0 mph 4.0 mph 86 % 0.00 in 0 W/m2
23:27 39.4 °F 35.5 °F 29.64 in Calm     86 % 0.00 in 0 W/m2
23:32 39.0 °F 35.2 °F 29.64 in ESE 1.0 mph 5.0 mph 86 % 0.00 in 0 W/m2
23:37 38.8 °F 35.3 °F 29.64 in ENE 3.0 mph 5.0 mph 87 % 0.00 in 0 W/m2
23:42 38.8 °F 35.3 °F 29.64 in NE 3.0 mph 5.0 mph 87 % 0.00 in 0 W/m2
23:47 38.8 °F 35.3 °F 29.64 in East 2.0 mph 5.0 mph 87 % 0.00 in 0 W/m2
23:58 38.8 °F 35.3 °F 29.65 in Calm   1.0 mph 87 % 0.00 in 0 W/m2
Delerius-Weather
Compliments of Weather Underground - 1.75 mb

Data updates at regular intervals.